createdAt,value
2022-09-10T00:01:17.409Z,99747.63
2022-09-10T00:03:44.065Z,99751.13
2022-09-10T00:06:12.014Z,99754.63
2022-09-10T00:08:39.566Z,99753.78
2022-09-10T00:11:10.187Z,99752.94
2022-09-10T00:13:39.519Z,99758.94
2022-09-10T00:16:09.670Z,99759.84
2022-09-10T00:18:37.147Z,99757.25
2022-09-10T00:21:07.324Z,99758.16
2022-09-10T00:23:34.747Z,99751.22
2022-09-10T00:26:12.343Z,99754.78
2022-09-10T00:28:40.024Z,99760.00
2022-09-10T00:31:07.273Z,99760.97
2022-09-10T00:33:34.331Z,99759.22
2022-09-10T00:36:01.368Z,99744.47
2022-09-10T00:38:30.256Z,99745.25
2022-09-10T00:41:03.843Z,99753.97
2022-09-10T00:44:03.117Z,99757.50
2022-09-10T00:49:15.258Z,99757.28
2022-09-10T00:51:43.757Z,99768.56
2022-09-10T00:54:11.636Z,99765.91
2022-09-10T00:56:39.391Z,99766.69
2022-09-10T00:59:09.937Z,99768.38
2022-09-10T01:01:39.122Z,99775.31
2022-09-10T01:04:07.872Z,99768.31
2022-09-10T01:06:35.503Z,99770.91
2022-09-10T01:09:03.266Z,99776.06
2022-09-10T01:14:39.862Z,99780.47
2022-09-10T01:17:46.580Z,99783.03
2022-09-10T01:26:25.633Z,99785.47
2022-09-10T01:29:01.214Z,99783.56
2022-09-10T01:34:16.834Z,99789.56
2022-09-10T01:36:48.651Z,99789.53
2022-09-10T01:39:21.065Z,99798.19
2022-09-10T01:41:48.924Z,99796.50
2022-09-10T01:44:52.785Z,99802.75
2022-09-10T01:47:51.279Z,99799.19
2022-09-10T02:04:02.212Z,99795.47
2022-09-10T02:06:34.803Z,99790.25
2022-09-10T02:09:02.717Z,99795.56
2022-09-10T02:11:30.358Z,99792.03
2022-09-10T02:13:58.551Z,99795.56
2022-09-10T02:16:31.506Z,99791.19
2022-09-10T02:19:00.859Z,99794.69
2022-09-10T02:21:28.020Z,99792.16
2022-09-10T02:23:59.457Z,99802.59
2022-09-10T02:26:27.061Z,99807.88
2022-09-10T02:28:54.862Z,99807.00
2022-09-10T02:31:22.057Z,99805.31
2022-09-10T02:33:48.618Z,99807.97
2022-09-10T02:36:15.117Z,99801.03
2022-09-10T02:38:41.669Z,99800.22
2022-09-10T02:41:09.430Z,99795.91
2022-09-10T02:43:38.120Z,99802.91
2022-09-10T02:46:08.831Z,99802.91
2022-09-10T02:48:35.377Z,99798.59
2022-09-10T02:51:02.755Z,99799.50
2022-09-10T02:53:31.652Z,99801.22
2022-09-10T02:55:58.531Z,99800.31
2022-09-10T02:58:25.120Z,99805.53
2022-09-10T03:00:51.757Z,99810.75
2022-09-10T03:03:18.427Z,99817.75
2022-09-10T03:05:45.347Z,99830.81
2022-09-10T03:08:12.036Z,99837.81
2022-09-10T03:10:39.305Z,99833.50
2022-09-10T03:13:05.833Z,99829.19
2022-09-10T03:15:32.417Z,99836.09
2022-09-10T03:17:58.948Z,99839.53
2022-09-10T03:20:25.933Z,99846.47
2022-09-10T03:22:52.505Z,99850.78
2022-09-10T03:25:19.669Z,99840.34
2022-09-10T03:27:46.204Z,99844.66
2022-09-10T03:30:13.150Z,99846.41
2022-09-10T03:32:39.722Z,99846.41
2022-09-10T03:35:06.729Z,99856.72
2022-09-10T03:37:33.430Z,99861.88
2022-09-10T03:40:00.588Z,99860.94
2022-09-10T03:42:27.184Z,99865.25
2022-09-10T03:44:54.089Z,99867.78
2022-09-10T03:47:20.599Z,99863.44
2022-09-10T03:49:47.120Z,99867.75
2022-09-10T03:52:13.655Z,99859.06
2022-09-10T03:54:40.210Z,99859.13
2022-09-10T03:57:06.920Z,99858.28
2022-09-10T03:59:33.451Z,99861.78
2022-09-10T04:02:00.091Z,99858.28
2022-09-10T04:04:26.974Z,99863.50
2022-09-10T04:06:53.969Z,99869.53
2022-09-10T04:09:20.517Z,99877.28
2022-09-10T04:11:47.254Z,99885.09
2022-09-10T04:14:14.018Z,99878.94
2022-09-10T04:16:40.694Z,99879.78
2022-09-10T04:19:07.548Z,99884.09
2022-09-10T04:21:34.088Z,99882.28
2022-09-10T04:24:00.839Z,99876.13
2022-09-10T04:26:27.492Z,99881.31
2022-09-10T04:28:54.043Z,99878.69
2022-09-10T04:31:20.755Z,99879.59
2022-09-10T04:33:47.306Z,99875.16
2022-09-10T04:36:14.631Z,99886.47
2022-09-10T04:38:42.163Z,99885.59
2022-09-10T04:41:09.574Z,99889.13
2022-09-10T04:43:37.936Z,99885.72
2022-09-10T04:46:04.621Z,99896.16
2022-09-10T04:48:33.152Z,99894.38
2022-09-10T04:51:15.821Z,99896.16
2022-09-10T04:53:43.424Z,99897.00
2022-09-10T04:56:10.314Z,99899.56
2022-09-10T04:58:39.141Z,99905.66
2022-09-10T05:01:06.648Z,99899.56
2022-09-10T05:03:33.595Z,99899.59
2022-09-10T05:06:00.388Z,99894.34
2022-09-10T05:08:26.972Z,99896.06
2022-09-10T05:10:53.477Z,99896.06
2022-09-10T05:13:20.019Z,99906.50
2022-09-10T05:15:46.555Z,99901.28
2022-09-10T05:18:13.144Z,99899.56
2022-09-10T05:20:39.670Z,99903.00
2022-09-10T05:23:06.209Z,99904.72
2022-09-10T05:25:34.588Z,99898.63
2022-09-10T05:28:01.649Z,99904.72
2022-09-10T05:30:32.965Z,99908.22
2022-09-10T05:33:01.347Z,99909.09
2022-09-10T05:35:28.912Z,99910.00
2022-09-10T05:37:57.685Z,99910.00
2022-09-10T05:40:25.499Z,99913.53
2022-09-10T05:42:53.059Z,99916.19
2022-09-10T05:45:20.344Z,99918.81
2022-09-10T05:47:47.629Z,99923.28
2022-09-10T05:50:14.652Z,99918.97
2022-09-10T05:52:41.375Z,99922.56
2022-09-10T05:55:08.384Z,99928.72
2022-09-10T05:57:35.543Z,99934.00
2022-09-10T06:00:05.167Z,99937.50
2022-09-10T06:02:31.808Z,99953.13
2022-09-10T06:04:58.634Z,99949.66
2022-09-10T06:07:25.234Z,99957.41
2022-09-10T06:09:51.824Z,99948.69
2022-09-10T06:12:18.849Z,99953.81
2022-09-10T06:14:45.497Z,99961.59
2022-09-10T06:17:12.540Z,99967.63
2022-09-10T06:19:39.968Z,99977.09
2022-09-10T06:22:06.497Z,99983.06
2022-09-10T06:24:33.023Z,99983.00
2022-09-10T06:26:59.572Z,99991.56
2022-09-10T06:29:26.088Z,99990.63
2022-09-10T06:31:52.678Z,99997.53
2022-09-10T06:34:19.503Z,99995.75
2022-09-10T06:36:48.055Z,100000.06
2022-09-10T06:39:14.594Z,100001.78
2022-09-10T06:41:44.272Z,100000.00
2022-09-10T06:44:13.397Z,100005.22
2022-09-10T06:49:29.736Z,100016.53
2022-09-10T06:51:56.537Z,100022.59
2022-09-10T06:54:23.117Z,100027.81
2022-09-10T06:56:49.718Z,100029.56
2022-09-10T06:59:18.290Z,100039.91
2022-09-10T07:01:44.947Z,100039.84
2022-09-10T07:04:11.484Z,100053.63
2022-09-10T07:06:38.362Z,100044.91
2022-09-10T07:09:05.268Z,100050.06
2022-09-10T07:11:32.195Z,100051.78
2022-09-10T07:14:00.209Z,100054.34
2022-09-10T07:16:28.297Z,100049.97
2022-09-10T07:18:57.970Z,100050.75
2022-09-10T07:21:27.322Z,100055.00
2022-09-10T07:23:57.704Z,100054.88
2022-09-10T07:26:24.877Z,100062.50
2022-09-10T07:28:52.230Z,100058.72
2022-09-10T07:31:22.474Z,100056.53
2022-09-10T07:33:49.923Z,100060.63
2022-09-10T07:36:17.720Z,100063.94
2022-09-10T07:38:44.692Z,100070.97
2022-09-10T07:41:13.993Z,100064.31
2022-09-10T07:43:41.837Z,100069.75
2022-09-10T07:46:14.109Z,100073.81
2022-09-10T07:48:41.585Z,100071.00
2022-09-10T07:51:11.203Z,100081.28
2022-09-10T07:53:38.745Z,100088.28
2022-09-10T07:56:07.425Z,100093.47
2022-09-10T07:58:36.034Z,100097.81
2022-09-10T08:01:09.175Z,100102.19
2022-09-10T08:03:35.756Z,100108.38
2022-09-10T08:06:03.333Z,100111.97
2022-09-10T08:08:31.851Z,100106.81
2022-09-10T08:13:45.500Z,100107.63
2022-09-10T08:16:15.207Z,100105.16
2022-09-10T08:18:43.113Z,100111.56
2022-09-10T08:21:10.804Z,100117.44
2022-09-10T08:23:39.723Z,100117.41
2022-09-10T08:26:08.172Z,100115.69
2022-09-10T08:28:36.001Z,100125.25
2022-09-10T08:31:07.763Z,100116.41
2022-09-10T08:33:36.438Z,100112.41
2022-09-10T08:36:05.729Z,100119.31
2022-09-10T08:38:35.111Z,100112.06
2022-09-10T08:41:08.206Z,100122.75
2022-09-10T08:46:23.978Z,100124.69
2022-09-10T08:48:58.966Z,100130.00
2022-09-10T08:51:30.033Z,100131.59
2022-09-10T08:54:03.097Z,100126.81
2022-09-10T08:56:31.260Z,100131.41
2022-09-10T09:01:41.055Z,100137.06
2022-09-10T09:04:20.808Z,100148.00
2022-09-10T09:06:52.438Z,100148.00
2022-09-10T09:09:19.108Z,100151.44
2022-09-10T09:14:45.273Z,100152.41
2022-09-10T09:25:32.945Z,100164.81
2022-09-10T09:27:59.758Z,100164.66
2022-09-10T09:30:33.779Z,100163.75
2022-09-10T09:33:12.460Z,100168.00
2022-09-10T09:41:07.864Z,100174.44
2022-09-10T09:46:31.106Z,100188.50
2022-09-10T09:49:00.126Z,100189.31
2022-09-10T09:51:30.659Z,100184.81
2022-09-10T09:54:34.506Z,100182.91
2022-09-10T09:56:50.008Z,100180.91
2022-09-10T09:59:25.492Z,100183.34
2022-09-10T10:01:52.982Z,100182.38
2022-09-10T10:04:23.349Z,100182.34
2022-09-10T10:06:59.928Z,100186.31
2022-09-10T10:09:29.810Z,100188.38
2022-09-10T10:22:44.155Z,100192.06
2022-09-10T10:25:38.351Z,100200.06
2022-09-10T10:28:26.318Z,100195.03
2022-09-10T10:30:56.602Z,100202.94
2022-09-10T10:33:28.613Z,100210.03
2022-09-10T10:36:18.278Z,100214.31
2022-09-10T10:38:53.325Z,100220.72
2022-09-10T10:41:59.714Z,100214.16
2022-09-10T10:55:47.638Z,100215.66
2022-09-10T11:06:20.412Z,100224.97
2022-09-10T11:08:57.612Z,100223.50
2022-09-10T11:11:33.847Z,100227.28
2022-09-10T11:14:40.201Z,100227.69
2022-09-10T11:45:55.150Z,100230.41
2022-09-10T11:48:44.738Z,100229.34
2022-09-10T11:51:19.133Z,100231.53
2022-09-10T11:53:45.955Z,100232.94
2022-09-10T12:07:11.038Z,100240.06
2022-09-10T12:09:49.198Z,100241.94
2022-09-10T12:17:42.596Z,100226.69
2022-09-10T12:20:18.491Z,100228.25
2022-09-10T12:22:46.128Z,100238.38
2022-09-10T12:27:57.694Z,100238.00
2022-09-10T12:33:07.557Z,100243.97
2022-09-10T12:38:50.427Z,100253.13
2022-09-10T12:44:02.507Z,100253.22
2022-09-10T12:46:31.370Z,100255.22
2022-09-10T13:02:37.589Z,100253.06
2022-09-10T13:05:19.354Z,100252.44
2022-09-10T13:07:49.224Z,100252.56
2022-09-10T13:10:27.191Z,100251.22
2022-09-10T13:12:58.533Z,100246.47
2022-09-10T13:15:28.152Z,100245.53
2022-09-10T13:20:34.610Z,100253.03
2022-09-10T13:23:04.241Z,100253.81
2022-09-10T13:25:37.022Z,100244.72
2022-09-10T13:52:15.193Z,100251.03
2022-09-10T13:54:47.542Z,100260.63
2022-09-10T13:57:20.583Z,100256.09
2022-09-10T13:59:51.648Z,100254.22
2022-09-10T14:02:21.303Z,100260.09
2022-09-10T14:04:48.222Z,100268.41
2022-09-10T14:07:20.741Z,100260.75
2022-09-10T14:09:50.414Z,100259.34
2022-09-10T14:12:20.890Z,100263.06
2022-09-10T14:14:53.289Z,100262.56
2022-09-10T14:17:25.700Z,100262.00
2022-09-10T14:19:59.263Z,100263.22
2022-09-10T14:22:27.094Z,100265.78
2022-09-10T14:24:59.931Z,100263.22
2022-09-10T14:33:39.660Z,100281.13
2022-09-10T14:44:28.296Z,100267.34
2022-09-10T14:57:20.975Z,100273.00
2022-09-10T14:59:47.640Z,100281.13
2022-09-10T15:02:19.455Z,100274.56
2022-09-10T15:04:46.145Z,100278.06
2022-09-10T15:07:13.678Z,100279.03
2022-09-10T15:09:41.021Z,100281.06
2022-09-10T15:12:28.675Z,100278.69
2022-09-10T15:14:57.154Z,100280.91
2022-09-10T15:17:23.798Z,100286.13
2022-09-10T15:19:50.610Z,100281.69
2022-09-10T15:22:27.557Z,100290.59
2022-09-10T15:25:11.459Z,100288.91
2022-09-10T15:27:38.771Z,100290.81
2022-09-10T15:30:06.618Z,100297.03
2022-09-10T15:32:33.177Z,100291.69
2022-09-10T15:34:59.822Z,100302.97
2022-09-10T15:37:27.119Z,100309.78
2022-09-10T15:39:53.815Z,100309.63
2022-09-10T15:42:21.076Z,100305.91
2022-09-10T15:44:47.670Z,100304.06
2022-09-10T15:47:14.246Z,100306.63
2022-09-10T15:49:40.783Z,100307.31
2022-09-10T15:52:07.304Z,100308.13
2022-09-10T15:54:33.956Z,100314.16
2022-09-10T15:57:01.132Z,100306.16
2022-09-10T15:59:28.452Z,100310.59
2022-09-10T16:01:55.030Z,100316.97
2022-09-10T16:04:21.581Z,100318.75
2022-09-10T16:06:48.121Z,100318.03
2022-09-10T16:09:14.879Z,100319.88
2022-09-10T16:11:43.125Z,100316.47
2022-09-10T16:14:13.337Z,100311.97
2022-09-10T16:16:41.013Z,100319.97
2022-09-10T16:19:09.190Z,100314.13
2022-09-10T16:21:37.612Z,100315.34
2022-09-10T16:24:05.710Z,100316.63
2022-09-10T16:26:37.145Z,100316.09
2022-09-10T16:29:06.573Z,100318.84
2022-09-10T16:31:34.515Z,100322.50
2022-09-10T16:34:04.764Z,100327.47
2022-09-10T16:36:34.537Z,100326.72
2022-09-10T16:39:02.709Z,100327.91
2022-09-10T16:41:29.865Z,100325.63
2022-09-10T16:43:58.445Z,100324.94
2022-09-10T16:46:26.342Z,100327.00
2022-09-10T16:48:54.349Z,100334.25
2022-09-10T16:51:24.328Z,100332.66
2022-09-10T16:53:57.100Z,100338.22
2022-09-10T16:56:25.572Z,100334.78
2022-09-10T16:58:52.670Z,100345.47
2022-09-10T17:01:21.364Z,100354.22
2022-09-10T17:03:49.946Z,100353.38
2022-09-10T17:06:20.497Z,100352.59
2022-09-10T17:08:47.094Z,100357.00
2022-09-10T17:11:15.031Z,100360.63
2022-09-10T17:13:41.602Z,100361.50
2022-09-10T17:16:25.764Z,100359.03
2022-09-10T17:21:37.187Z,100358.25
2022-09-10T17:24:06.126Z,100360.97
2022-09-10T17:26:34.212Z,100357.53
2022-09-10T17:29:04.129Z,100361.03
2022-09-10T17:31:31.250Z,100370.75
2022-09-10T17:33:59.229Z,100369.06
2022-09-10T17:36:26.798Z,100366.50
2022-09-10T17:38:55.088Z,100367.47
2022-09-10T17:41:23.223Z,100362.34
2022-09-10T17:43:50.001Z,100367.84
2022-09-10T17:46:19.028Z,100373.28
2022-09-10T17:48:45.883Z,100376.16
2022-09-10T17:51:15.053Z,100375.50
2022-09-10T17:53:41.920Z,100373.91
2022-09-10T17:56:11.557Z,100374.91
2022-09-10T17:58:38.714Z,100374.22
2022-09-10T18:01:08.708Z,100372.69
2022-09-10T18:03:35.885Z,100370.34
2022-09-10T18:06:04.895Z,100378.41
2022-09-10T18:08:33.324Z,100375.94
2022-09-10T18:13:39.009Z,100377.16
2022-09-10T18:18:41.117Z,100388.06
2022-09-10T18:21:18.110Z,100388.28
2022-09-10T18:23:49.417Z,100390.97
2022-09-10T18:26:19.316Z,100400.75
2022-09-10T18:28:54.530Z,100403.63
2022-09-10T18:31:22.185Z,100406.38
2022-09-10T18:33:48.897Z,100410.03
2022-09-10T18:36:18.402Z,100411.13
2022-09-10T18:38:45.068Z,100414.44
2022-09-10T18:41:30.234Z,100425.69
2022-09-10T18:43:59.138Z,100426.50
2022-09-10T18:46:26.246Z,100425.69
2022-09-10T18:48:53.510Z,100433.63
2022-09-10T18:51:22.759Z,100430.22
2022-09-10T18:53:53.864Z,100425.06
2022-09-10T18:56:23.528Z,100419.91
2022-09-10T18:58:51.987Z,100426.19
2022-09-10T19:01:19.166Z,100428.94
2022-09-10T19:03:47.822Z,100431.75
2022-09-10T19:06:17.701Z,100443.19
2022-09-10T19:08:50.411Z,100439.88
2022-09-10T19:11:17.608Z,100445.22
2022-09-10T19:13:48.936Z,100443.63
2022-09-10T19:16:15.916Z,100455.16
2022-09-10T19:18:43.668Z,100452.75
2022-09-10T19:21:10.692Z,100455.47
2022-09-10T19:23:37.350Z,100463.44
2022-09-10T19:26:04.018Z,100467.97
2022-09-10T19:28:33.597Z,100461.97
2022-09-10T19:31:04.855Z,100454.03
2022-09-10T19:33:32.880Z,100470.22
2022-09-10T19:36:03.561Z,100470.31
2022-09-10T19:38:37.626Z,100468.69
2022-09-10T19:41:08.303Z,100472.28
2022-09-10T19:43:36.404Z,100466.25
2022-09-10T19:46:04.659Z,100476.94
2022-09-10T19:48:31.989Z,100476.09
2022-09-10T19:50:59.140Z,100481.53
2022-09-10T19:53:25.987Z,100475.50
2022-09-10T19:55:52.989Z,100474.75
2022-09-10T19:58:19.906Z,100484.38
2022-09-10T20:00:47.447Z,100484.44
2022-09-10T20:03:14.823Z,100489.78
2022-09-10T20:05:42.710Z,100481.22
2022-09-10T20:08:09.882Z,100484.81
2022-09-10T20:10:38.114Z,100485.81
2022-09-10T20:13:05.713Z,100486.81
2022-09-10T20:15:32.216Z,100478.25
2022-09-10T20:17:59.023Z,100475.72
2022-09-10T20:20:25.612Z,100480.19
2022-09-10T20:22:52.162Z,100477.69
2022-09-10T20:25:18.731Z,100480.41
2022-09-10T20:27:45.299Z,100489.25
2022-09-10T20:30:11.954Z,100487.63
2022-09-10T20:32:38.629Z,100490.34
2022-09-10T20:35:05.655Z,100482.56
2022-09-10T20:37:32.829Z,100491.41
2022-09-10T20:40:00.016Z,100500.22
2022-09-10T20:42:27.936Z,100496.81
2022-09-10T20:44:55.514Z,100498.72
2022-09-10T20:47:24.438Z,100505.84
2022-09-10T20:49:50.949Z,100510.25
2022-09-10T20:52:18.314Z,100513.88
2022-09-10T20:54:44.821Z,100509.50
2022-09-10T20:57:11.731Z,100519.03
2022-09-10T20:59:38.768Z,100517.28
2022-09-10T21:02:05.765Z,100525.16
2022-09-10T21:04:33.017Z,100524.28
2022-09-10T21:06:59.635Z,100527.81
2022-09-10T21:09:26.241Z,100524.34
2022-09-10T21:11:52.867Z,100534.00
2022-09-10T21:14:19.458Z,100527.00
2022-09-10T21:16:47.330Z,100522.72
2022-09-10T21:19:17.393Z,100526.28
2022-09-10T21:21:45.501Z,100521.06
2022-09-10T21:24:14.976Z,100526.34
2022-09-10T21:26:43.546Z,100533.41
2022-09-10T21:29:13.948Z,100528.19
2022-09-10T21:31:41.460Z,100523.91
2022-09-10T21:34:08.838Z,100521.31
2022-09-10T21:36:37.788Z,100524.06
2022-09-10T21:39:07.571Z,100520.69
2022-09-10T21:41:36.954Z,100520.84
2022-09-10T21:44:07.909Z,100517.47
2022-09-10T21:46:34.554Z,100507.19
2022-09-10T21:49:02.396Z,100512.53
2022-09-10T21:51:29.404Z,100507.44
2022-09-10T21:53:56.891Z,100507.59
2022-09-10T21:56:26.164Z,100511.25
2022-09-10T21:58:53.708Z,100518.34
2022-09-10T22:01:23.713Z,100523.66
2022-09-10T22:03:52.656Z,100528.94
2022-09-10T22:06:23.139Z,100529.06
2022-09-10T22:08:53.121Z,100525.66
2022-09-10T22:11:24.381Z,100529.25
2022-09-10T22:13:54.487Z,100534.50
2022-09-10T22:16:23.061Z,100531.13
2022-09-10T22:18:50.581Z,100539.94
2022-09-10T22:21:18.625Z,100540.88
2022-09-10T22:23:45.172Z,100538.34
2022-09-10T22:26:15.468Z,100542.78
2022-09-10T22:28:43.020Z,100545.50
2022-09-10T22:31:13.010Z,100549.06
2022-09-10T22:33:41.934Z,100547.41
2022-09-10T22:38:51.597Z,100551.94
2022-09-10T22:41:19.317Z,100555.50
2022-09-10T22:43:45.973Z,100549.50
2022-09-10T22:46:12.985Z,100556.53
2022-09-10T22:48:42.488Z,100554.88
2022-09-10T22:51:13.380Z,100553.19
2022-09-10T22:53:41.522Z,100562.00
2022-09-10T22:56:09.167Z,100566.38
2022-09-10T22:58:37.008Z,100563.81
2022-09-10T23:01:06.573Z,100558.59
2022-09-10T23:03:33.161Z,100553.41
2022-09-10T23:08:47.880Z,100567.41
2022-09-10T23:11:17.405Z,100573.56
2022-09-10T23:13:45.977Z,100568.41
2022-09-10T23:16:17.350Z,100570.25
2022-09-10T23:18:48.686Z,100563.34
2022-09-10T23:21:15.205Z,100560.81
2022-09-10T23:23:45.597Z,100566.06
2022-09-10T23:26:12.694Z,100570.47
2022-09-10T23:28:39.778Z,100571.44
2022-09-10T23:31:13.560Z,100574.94
2022-09-10T23:33:42.126Z,100564.56
2022-09-10T23:36:09.868Z,100566.38
2022-09-10T23:38:36.448Z,100559.47
2022-09-10T23:41:03.445Z,100567.31
2022-09-10T23:43:30.189Z,100562.13
2022-09-10T23:45:56.761Z,100570.00
2022-09-10T23:48:24.585Z,100566.56
2022-09-10T23:50:53.300Z,100566.63
2022-09-10T23:53:21.198Z,100559.69
2022-09-10T23:55:48.489Z,100559.72
2022-09-10T23:58:17.072Z,100566.75
